sensor_id;sensor_type;location;lat;lon;timestamp;temperature;humidity
28075;DHT22;15385;51.088;6.572;2023-04-03T00:00:13;6.00;99.90
28075;DHT22;15385;51.088;6.572;2023-04-03T00:02:44;6.00;99.90
28075;DHT22;15385;51.088;6.572;2023-04-03T00:05:15;6.00;99.90
28075;DHT22;15385;51.088;6.572;2023-04-03T00:07:45;5.90;99.90
28075;DHT22;15385;51.088;6.572;2023-04-03T00:10:16;5.90;99.90
28075;DHT22;15385;51.088;6.572;2023-04-03T00:12:47;5.90;99.90
28075;DHT22;15385;51.088;6.572;2023-04-03T00:15:18;5.90;99.90
28075;DHT22;15385;51.088;6.572;2023-04-03T00:17:48;5.80;99.90
28075;DHT22;15385;51.088;6.572;2023-04-03T00:20:19;5.80;99.90
28075;DHT22;15385;51.088;6.572;2023-04-03T00:22:49;5.80;99.90
28075;DHT22;15385;51.088;6.572;2023-04-03T00:25:21;5.70;99.90
28075;DHT22;15385;51.088;6.572;2023-04-03T00:27:51;5.70;99.90
28075;DHT22;15385;51.088;6.572;2023-04-03T00:30:22;5.70;99.90
28075;DHT22;15385;51.088;6.572;2023-04-03T00:32:53;5.70;99.90
28075;DHT22;15385;51.088;6.572;2023-04-03T00:35:24;5.70;99.90
28075;DHT22;15385;51.088;6.572;2023-04-03T00:37:55;5.70;99.90
28075;DHT22;15385;51.088;6.572;2023-04-03T00:40:27;5.60;99.90
28075;DHT22;15385;51.088;6.572;2023-04-03T00:42:59;5.60;99.90
28075;DHT22;15385;51.088;6.572;2023-04-03T00:45:34;5.60;99.90
28075;DHT22;15385;51.088;6.572;2023-04-03T00:48:10;5.60;99.90
28075;DHT22;15385;51.088;6.572;2023-04-03T00:50:43;5.50;99.90
28075;DHT22;15385;51.088;6.572;2023-04-03T00:53:19;5.50;99.90
28075;DHT22;15385;51.088;6.572;2023-04-03T00:55:53;5.30;99.90
28075;DHT22;15385;51.088;6.572;2023-04-03T00:58:34;5.40;99.90
28075;DHT22;15385;51.088;6.572;2023-04-03T01:01:08;5.40;99.90
28075;DHT22;15385;51.088;6.572;2023-04-03T01:03:40;5.40;99.90
28075;DHT22;15385;51.088;6.572;2023-04-03T01:06:11;5.30;99.90
28075;DHT22;15385;51.088;6.572;2023-04-03T01:08:44;5.30;99.90
28075;DHT22;15385;51.088;6.572;2023-04-03T01:11:15;5.30;99.90
28075;DHT22;15385;51.088;6.572;2023-04-03T01:13:45;5.30;99.90
28075;DHT22;15385;51.088;6.572;2023-04-03T01:16:16;5.30;99.90
28075;DHT22;15385;51.088;6.572;2023-04-03T01:18:47;5.30;99.90
28075;DHT22;15385;51.088;6.572;2023-04-03T01:24:36;5.20;99.90
28075;DHT22;15385;51.088;6.572;2023-04-03T01:27:10;5.20;99.90
28075;DHT22;15385;51.088;6.572;2023-04-03T01:29:41;5.10;99.90
28075;DHT22;15385;51.088;6.572;2023-04-03T01:32:13;5.10;99.90
28075;DHT22;15385;51.088;6.572;2023-04-03T01:34:44;5.10;99.90
28075;DHT22;15385;51.088;6.572;2023-04-03T01:37:14;5.00;99.90
28075;DHT22;15385;51.088;6.572;2023-04-03T01:39:45;5.00;99.90
28075;DHT22;15385;51.088;6.572;2023-04-03T01:42:16;5.00;99.90
28075;DHT22;15385;51.088;6.572;2023-04-03T01:44:46;5.00;99.90
28075;DHT22;15385;51.088;6.572;2023-04-03T01:47:17;5.00;99.90
28075;DHT22;15385;51.088;6.572;2023-04-03T01:49:48;5.00;99.90
28075;DHT22;15385;51.088;6.572;2023-04-03T01:52:18;5.00;99.90
28075;DHT22;15385;51.088;6.572;2023-04-03T01:54:49;5.00;99.90
28075;DHT22;15385;51.088;6.572;2023-04-03T01:57:20;4.90;99.90
28075;DHT22;15385;51.088;6.572;2023-04-03T01:59:51;4.90;99.90
28075;DHT22;15385;51.088;6.572;2023-04-03T02:02:21;4.90;99.90
28075;DHT22;15385;51.088;6.572;2023-04-03T02:04:52;4.90;99.90
28075;DHT22;15385;51.088;6.572;2023-04-03T02:07:23;4.90;99.90
28075;DHT22;15385;51.088;6.572;2023-04-03T02:09:53;4.90;99.90
28075;DHT22;15385;51.088;6.572;2023-04-03T02:12:24;4.90;99.90
28075;DHT22;15385;51.088;6.572;2023-04-03T02:14:54;4.90;99.90
28075;DHT22;15385;51.088;6.572;2023-04-03T02:17:25;4.80;99.90
28075;DHT22;15385;51.088;6.572;2023-04-03T02:19:55;4.80;99.90
28075;DHT22;15385;51.088;6.572;2023-04-03T02:22:26;4.80;99.90
28075;DHT22;15385;51.088;6.572;2023-04-03T02:24:57;4.80;99.90
28075;DHT22;15385;51.088;6.572;2023-04-03T02:27:27;4.80;99.90
28075;DHT22;15385;51.088;6.572;2023-04-03T02:29:58;4.70;99.90
28075;DHT22;15385;51.088;6.572;2023-04-03T02:32:29;4.70;99.90
28075;DHT22;15385;51.088;6.572;2023-04-03T02:34:59;4.70;99.90
28075;DHT22;15385;51.088;6.572;2023-04-03T02:37:30;4.70;99.90
28075;DHT22;15385;51.088;6.572;2023-04-03T02:40:01;4.70;99.90
28075;DHT22;15385;51.088;6.572;2023-04-03T02:42:32;4.70;99.90
28075;DHT22;15385;51.088;6.572;2023-04-03T02:45:02;4.60;99.90
28075;DHT22;15385;51.088;6.572;2023-04-03T02:47:33;4.60;99.90
28075;DHT22;15385;51.088;6.572;2023-04-03T02:50:04;4.60;99.90
28075;DHT22;15385;51.088;6.572;2023-04-03T02:52:35;4.60;99.90
28075;DHT22;15385;51.088;6.572;2023-04-03T02:55:06;4.60;99.90
28075;DHT22;15385;51.088;6.572;2023-04-03T02:57:37;4.60;99.90
28075;DHT22;15385;51.088;6.572;2023-04-03T03:00:08;4.50;99.90
28075;DHT22;15385;51.088;6.572;2023-04-03T03:02:39;4.50;99.90
28075;DHT22;15385;51.088;6.572;2023-04-03T03:05:10;4.50;99.90
28075;DHT22;15385;51.088;6.572;2023-04-03T03:07:40;4.50;99.90
28075;DHT22;15385;51.088;6.572;2023-04-03T03:10:11;4.50;99.90
28075;DHT22;15385;51.088;6.572;2023-04-03T03:12:41;4.50;99.90
28075;DHT22;15385;51.088;6.572;2023-04-03T03:15:12;4.50;99.90
28075;DHT22;15385;51.088;6.572;2023-04-03T03:17:43;4.50;99.90
28075;DHT22;15385;51.088;6.572;2023-04-03T03:20:14;4.50;99.90
28075;DHT22;15385;51.088;6.572;2023-04-03T03:22:45;4.40;99.90
28075;DHT22;15385;51.088;6.572;2023-04-03T03:25:16;4.40;99.90
28075;DHT22;15385;51.088;6.572;2023-04-03T03:27:46;4.40;99.90
28075;DHT22;15385;51.088;6.572;2023-04-03T03:30:17;4.40;99.90
28075;DHT22;15385;51.088;6.572;2023-04-03T03:32:47;4.40;99.90
28075;DHT22;15385;51.088;6.572;2023-04-03T03:35:18;4.40;99.90
28075;DHT22;15385;51.088;6.572;2023-04-03T03:37:49;4.40;99.90
28075;DHT22;15385;51.088;6.572;2023-04-03T03:40:19;4.40;99.90
28075;DHT22;15385;51.088;6.572;2023-04-03T03:42:50;4.40;99.90
28075;DHT22;15385;51.088;6.572;2023-04-03T03:45:21;4.40;99.90
28075;DHT22;15385;51.088;6.572;2023-04-03T03:47:51;4.30;99.90
28075;DHT22;15385;51.088;6.572;2023-04-03T03:50:22;4.30;99.90
28075;DHT22;15385;51.088;6.572;2023-04-03T03:52:52;4.30;99.90
28075;DHT22;15385;51.088;6.572;2023-04-03T03:55:23;4.30;99.90
28075;DHT22;15385;51.088;6.572;2023-04-03T03:57:54;4.30;99.90
28075;DHT22;15385;51.088;6.572;2023-04-03T04:00:24;4.30;99.90
28075;DHT22;15385;51.088;6.572;2023-04-03T04:02:55;4.30;99.90
28075;DHT22;15385;51.088;6.572;2023-04-03T04:05:26;4.30;99.90
28075;DHT22;15385;51.088;6.572;2023-04-03T04:07:57;4.20;99.90
28075;DHT22;15385;51.088;6.572;2023-04-03T04:10:27;4.20;99.90
28075;DHT22;15385;51.088;6.572;2023-04-03T04:12:58;4.20;99.90
28075;DHT22;15385;51.088;6.572;2023-04-03T04:15:28;4.20;99.90
28075;DHT22;15385;51.088;6.572;2023-04-03T04:17:59;4.20;99.90
28075;DHT22;15385;51.088;6.572;2023-04-03T04:20:30;4.20;99.90
28075;DHT22;15385;51.088;6.572;2023-04-03T04:23:00;4.20;99.90
28075;DHT22;15385;51.088;6.572;2023-04-03T04:25:31;4.20;99.90
28075;DHT22;15385;51.088;6.572;2023-04-03T04:28:03;4.20;99.90
28075;DHT22;15385;51.088;6.572;2023-04-03T04:30:33;4.20;99.90
28075;DHT22;15385;51.088;6.572;2023-04-03T04:33:04;4.20;99.90
28075;DHT22;15385;51.088;6.572;2023-04-03T04:35:35;4.20;99.90
28075;DHT22;15385;51.088;6.572;2023-04-03T04:38:06;4.20;99.90
28075;DHT22;15385;51.088;6.572;2023-04-03T04:40:38;4.20;99.90
28075;DHT22;15385;51.088;6.572;2023-04-03T04:43:09;4.30;99.90
28075;DHT22;15385;51.088;6.572;2023-04-03T04:45:41;4.30;99.90
28075;DHT22;15385;51.088;6.572;2023-04-03T04:48:12;4.30;99.90
28075;DHT22;15385;51.088;6.572;2023-04-03T04:50:42;4.30;99.90
28075;DHT22;15385;51.088;6.572;2023-04-03T04:53:13;4.30;99.90
28075;DHT22;15385;51.088;6.572;2023-04-03T04:55:44;4.30;99.90
28075;DHT22;15385;51.088;6.572;2023-04-03T04:58:14;4.30;99.90
28075;DHT22;15385;51.088;6.572;2023-04-03T05:00:45;4.40;99.90
28075;DHT22;15385;51.088;6.572;2023-04-03T05:03:16;4.30;99.90
28075;DHT22;15385;51.088;6.572;2023-04-03T05:05:46;4.30;99.90
28075;DHT22;15385;51.088;6.572;2023-04-03T05:08:17;4.30;99.90
28075;DHT22;15385;51.088;6.572;2023-04-03T05:10:47;4.30;99.90
28075;DHT22;15385;51.088;6.572;2023-04-03T05:13:18;4.20;99.90
28075;DHT22;15385;51.088;6.572;2023-04-03T05:15:49;4.20;99.90
28075;DHT22;15385;51.088;6.572;2023-04-03T05:18:20;4.20;99.90
28075;DHT22;15385;51.088;6.572;2023-04-03T05:20:51;4.20;99.90
28075;DHT22;15385;51.088;6.572;2023-04-03T05:23:21;4.20;99.90
28075;DHT22;15385;51.088;6.572;2023-04-03T05:25:52;4.20;99.90
28075;DHT22;15385;51.088;6.572;2023-04-03T05:28:23;4.20;99.90
28075;DHT22;15385;51.088;6.572;2023-04-03T05:30:55;4.20;99.90
28075;DHT22;15385;51.088;6.572;2023-04-03T05:33:26;4.20;99.90
28075;DHT22;15385;51.088;6.572;2023-04-03T05:36:02;4.20;99.90
28075;DHT22;15385;51.088;6.572;2023-04-03T05:38:33;4.20;99.90
28075;DHT22;15385;51.088;6.572;2023-04-03T05:41:04;4.20;99.90
28075;DHT22;15385;51.088;6.572;2023-04-03T05:43:35;4.20;99.90
28075;DHT22;15385;51.088;6.572;2023-04-03T05:46:16;4.30;99.90
28075;DHT22;15385;51.088;6.572;2023-04-03T05:48:47;4.40;99.90
28075;DHT22;15385;51.088;6.572;2023-04-03T05:51:21;4.40;99.90
28075;DHT22;15385;51.088;6.572;2023-04-03T05:53:58;4.40;99.90
28075;DHT22;15385;51.088;6.572;2023-04-03T05:56:30;4.40;99.90
28075;DHT22;15385;51.088;6.572;2023-04-03T05:59:01;4.40;99.90
28075;DHT22;15385;51.088;6.572;2023-04-03T06:01:31;4.50;99.90
28075;DHT22;15385;51.088;6.572;2023-04-03T06:04:02;4.50;99.90
28075;DHT22;15385;51.088;6.572;2023-04-03T06:09:17;4.70;99.90
28075;DHT22;15385;51.088;6.572;2023-04-03T06:11:48;4.70;99.90
28075;DHT22;15385;51.088;6.572;2023-04-03T06:14:19;4.80;99.90
28075;DHT22;15385;51.088;6.572;2023-04-03T06:16:50;5.00;99.90
28075;DHT22;15385;51.088;6.572;2023-04-03T06:19:20;5.10;99.90
28075;DHT22;15385;51.088;6.572;2023-04-03T06:21:51;5.30;99.90
28075;DHT22;15385;51.088;6.572;2023-04-03T06:24:22;5.50;99.90
28075;DHT22;15385;51.088;6.572;2023-04-03T06:26:54;5.60;99.90
28075;DHT22;15385;51.088;6.572;2023-04-03T06:29:25;5.70;99.90
28075;DHT22;15385;51.088;6.572;2023-04-03T06:31:56;5.70;99.90
28075;DHT22;15385;51.088;6.572;2023-04-03T06:34:26;5.70;99.90
28075;DHT22;15385;51.088;6.572;2023-04-03T06:36:57;5.80;99.90
28075;DHT22;15385;51.088;6.572;2023-04-03T06:39:28;5.80;99.90
28075;DHT22;15385;51.088;6.572;2023-04-03T06:41:59;5.70;99.90
28075;DHT22;15385;51.088;6.572;2023-04-03T06:44:30;5.60;99.90
28075;DHT22;15385;51.088;6.572;2023-04-03T06:47:01;5.60;99.90
28075;DHT22;15385;51.088;6.572;2023-04-03T06:49:31;5.60;99.90
28075;DHT22;15385;51.088;6.572;2023-04-03T06:52:02;5.70;99.90
28075;DHT22;15385;51.088;6.572;2023-04-03T06:54:33;5.70;99.90
28075;DHT22;15385;51.088;6.572;2023-04-03T06:57:04;5.80;99.90
28075;DHT22;15385;51.088;6.572;2023-04-03T06:59:35;5.80;99.90
28075;DHT22;15385;51.088;6.572;2023-04-03T07:02:06;5.90;99.90
28075;DHT22;15385;51.088;6.572;2023-04-03T07:04:37;5.90;99.90
28075;DHT22;15385;51.088;6.572;2023-04-03T07:07:08;6.10;99.90
28075;DHT22;15385;51.088;6.572;2023-04-03T07:09:39;6.30;99.90
28075;DHT22;15385;51.088;6.572;2023-04-03T07:12:10;6.40;99.90
28075;DHT22;15385;51.088;6.572;2023-04-03T07:14:41;6.50;99.90
28075;DHT22;15385;51.088;6.572;2023-04-03T07:17:14;6.70;99.90
28075;DHT22;15385;51.088;6.572;2023-04-03T07:19:44;6.70;99.90
28075;DHT22;15385;51.088;6.572;2023-04-03T07:22:15;6.70;99.90
28075;DHT22;15385;51.088;6.572;2023-04-03T07:24:46;6.80;99.90
28075;DHT22;15385;51.088;6.572;2023-04-03T07:27:17;6.90;99.90
28075;DHT22;15385;51.088;6.572;2023-04-03T07:29:48;7.10;99.90
28075;DHT22;15385;51.088;6.572;2023-04-03T07:32:19;7.30;99.90
28075;DHT22;15385;51.088;6.572;2023-04-03T07:34:50;7.40;99.90
28075;DHT22;15385;51.088;6.572;2023-04-03T07:37:20;7.40;99.90
28075;DHT22;15385;51.088;6.572;2023-04-03T07:39:51;7.40;99.90
28075;DHT22;15385;51.088;6.572;2023-04-03T07:42:21;7.30;99.90
28075;DHT22;15385;51.088;6.572;2023-04-03T07:44:52;7.60;99.90
28075;DHT22;15385;51.088;6.572;2023-04-03T07:47:23;7.80;99.90
28075;DHT22;15385;51.088;6.572;2023-04-03T07:49:53;8.00;99.90
28075;DHT22;15385;51.088;6.572;2023-04-03T07:52:24;8.20;99.90
28075;DHT22;15385;51.088;6.572;2023-04-03T07:54:55;8.30;99.90
28075;DHT22;15385;51.088;6.572;2023-04-03T07:57:26;8.20;99.90
28075;DHT22;15385;51.088;6.572;2023-04-03T07:59:56;8.10;99.90
28075;DHT22;15385;51.088;6.572;2023-04-03T08:02:27;8.30;99.90
28075;DHT22;15385;51.088;6.572;2023-04-03T08:04:58;8.30;99.90
28075;DHT22;15385;51.088;6.572;2023-04-03T08:07:29;8.10;99.90
28075;DHT22;15385;51.088;6.572;2023-04-03T08:09:59;8.10;99.90
28075;DHT22;15385;51.088;6.572;2023-04-03T08:12:30;8.20;99.90
28075;DHT22;15385;51.088;6.572;2023-04-03T08:15:02;8.30;99.90
28075;DHT22;15385;51.088;6.572;2023-04-03T08:17:33;8.30;99.90
28075;DHT22;15385;51.088;6.572;2023-04-03T08:20:05;8.40;99.90
28075;DHT22;15385;51.088;6.572;2023-04-03T08:22:37;8.60;99.90
28075;DHT22;15385;51.088;6.572;2023-04-03T08:25:08;8.60;99.90
28075;DHT22;15385;51.088;6.572;2023-04-03T08:27:38;8.80;99.90
28075;DHT22;15385;51.088;6.572;2023-04-03T08:30:09;8.90;99.90
28075;DHT22;15385;51.088;6.572;2023-04-03T08:32:40;8.90;99.90
28075;DHT22;15385;51.088;6.572;2023-04-03T08:35:14;9.00;99.90
28075;DHT22;15385;51.088;6.572;2023-04-03T08:37:45;9.10;99.90
28075;DHT22;15385;51.088;6.572;2023-04-03T08:40:16;9.00;99.90
28075;DHT22;15385;51.088;6.572;2023-04-03T08:45:49;9.30;99.90
28075;DHT22;15385;51.088;6.572;2023-04-03T08:48:27;9.30;99.90
28075;DHT22;15385;51.088;6.572;2023-04-03T08:51:04;9.40;99.90
28075;DHT22;15385;51.088;6.572;2023-04-03T08:56:21;10.10;99.90
28075;DHT22;15385;51.088;6.572;2023-04-03T08:58:59;10.30;99.90
28075;DHT22;15385;51.088;6.572;2023-04-03T09:01:39;10.40;99.90
28075;DHT22;15385;51.088;6.572;2023-04-03T09:04:15;10.50;99.90
28075;DHT22;15385;51.088;6.572;2023-04-03T09:06:52;10.40;99.90
28075;DHT22;15385;51.088;6.572;2023-04-03T09:09:39;10.30;99.90
28075;DHT22;15385;51.088;6.572;2023-04-03T09:15:23;10.40;99.90
28075;DHT22;15385;51.088;6.572;2023-04-03T09:18:19;10.60;99.90
28075;DHT22;15385;51.088;6.572;2023-04-03T09:21:28;10.40;99.90
28075;DHT22;15385;51.088;6.572;2023-04-03T09:24:04;10.40;99.90
28075;DHT22;15385;51.088;6.572;2023-04-03T09:26:44;10.40;99.90
28075;DHT22;15385;51.088;6.572;2023-04-03T09:29:19;10.60;99.90
28075;DHT22;15385;51.088;6.572;2023-04-03T09:32:00;10.80;99.90
28075;DHT22;15385;51.088;6.572;2023-04-03T09:34:36;10.90;99.90
28075;DHT22;15385;51.088;6.572;2023-04-03T09:37:07;10.80;99.90
28075;DHT22;15385;51.088;6.572;2023-04-03T09:39:54;11.00;99.90
28075;DHT22;15385;51.088;6.572;2023-04-03T09:42:26;11.20;99.90
28075;DHT22;15385;51.088;6.572;2023-04-03T09:44:59;11.20;99.90
28075;DHT22;15385;51.088;6.572;2023-04-03T09:47:36;11.40;99.90
28075;DHT22;15385;51.088;6.572;2023-04-03T09:52:49;11.70;99.90
28075;DHT22;15385;51.088;6.572;2023-04-03T09:55:22;11.80;99.90
28075;DHT22;15385;51.088;6.572;2023-04-03T09:57:59;12.00;99.90
28075;DHT22;15385;51.088;6.572;2023-04-03T10:00:34;12.10;99.90
28075;DHT22;15385;51.088;6.572;2023-04-03T10:03:08;12.30;97.20
28075;DHT22;15385;51.088;6.572;2023-04-03T10:05:52;12.10;96.20
28075;DHT22;15385;51.088;6.572;2023-04-03T10:08:30;12.20;98.20
28075;DHT22;15385;51.088;6.572;2023-04-03T10:11:11;12.20;95.60
28075;DHT22;15385;51.088;6.572;2023-04-03T10:14:02;11.90;94.70
28075;DHT22;15385;51.088;6.572;2023-04-03T10:16:51;12.00;96.50
28075;DHT22;15385;51.088;6.572;2023-04-03T10:19:36;12.30;96.70
28075;DHT22;15385;51.088;6.572;2023-04-03T10:27:55;12.10;95.00
28075;DHT22;15385;51.088;6.572;2023-04-03T10:30:48;12.20;97.20
28075;DHT22;15385;51.088;6.572;2023-04-03T10:39:45;12.60;96.60
28075;DHT22;15385;51.088;6.572;2023-04-03T10:48:26;12.90;97.80
28075;DHT22;15385;51.088;6.572;2023-04-03T10:53:53;13.60;98.00
28075;DHT22;15385;51.088;6.572;2023-04-03T10:56:36;13.70;97.50
28075;DHT22;15385;51.088;6.572;2023-04-03T11:02:02;13.90;95.70
28075;DHT22;15385;51.088;6.572;2023-04-03T11:04:36;13.90;94.50
28075;DHT22;15385;51.088;6.572;2023-04-03T11:07:27;13.50;93.90
28075;DHT22;15385;51.088;6.572;2023-04-03T11:10:26;13.60;94.80
28075;DHT22;15385;51.088;6.572;2023-04-03T11:13:12;13.50;94.50
28075;DHT22;15385;51.088;6.572;2023-04-03T11:15:44;13.40;94.40
28075;DHT22;15385;51.088;6.572;2023-04-03T11:18:27;13.50;94.50
28075;DHT22;15385;51.088;6.572;2023-04-03T11:23:41;13.30;93.20
28075;DHT22;15385;51.088;6.572;2023-04-03T11:26:14;13.70;94.40
28075;DHT22;15385;51.088;6.572;2023-04-03T11:28:46;13.80;92.20
28075;DHT22;15385;51.088;6.572;2023-04-03T11:34:37;13.90;93.10
28075;DHT22;15385;51.088;6.572;2023-04-03T11:37:20;13.70;91.30
28075;DHT22;15385;51.088;6.572;2023-04-03T11:39:56;13.40;93.00
28075;DHT22;15385;51.088;6.572;2023-04-03T11:42:37;13.70;93.70
28075;DHT22;15385;51.088;6.572;2023-04-03T11:48:04;13.90;90.40
28075;DHT22;15385;51.088;6.572;2023-04-03T11:58:25;14.20;91.10
28075;DHT22;15385;51.088;6.572;2023-04-03T12:00:57;14.40;89.70
28075;DHT22;15385;51.088;6.572;2023-04-03T12:24:35;14.80;81.00
28075;DHT22;15385;51.088;6.572;2023-04-03T12:27:28;14.80;80.70
28075;DHT22;15385;51.088;6.572;2023-04-03T12:35:34;14.50;80.50
28075;DHT22;15385;51.088;6.572;2023-04-03T12:41:18;15.00;83.70
28075;DHT22;15385;51.088;6.572;2023-04-03T12:46:51;15.30;80.20
28075;DHT22;15385;51.088;6.572;2023-04-03T12:49:38;15.30;81.20
28075;DHT22;15385;51.088;6.572;2023-04-03T12:54:53;15.50;79.00
28075;DHT22;15385;51.088;6.572;2023-04-03T12:57:26;15.40;75.40
28075;DHT22;15385;51.088;6.572;2023-04-03T12:59:58;15.40;78.10
28075;DHT22;15385;51.088;6.572;2023-04-03T13:02:31;15.70;79.00
28075;DHT22;15385;51.088;6.572;2023-04-03T13:05:09;16.20;79.30
28075;DHT22;15385;51.088;6.572;2023-04-03T13:08:10;16.10;75.10
28075;DHT22;15385;51.088;6.572;2023-04-03T13:11:02;16.30;73.10
28075;DHT22;15385;51.088;6.572;2023-04-03T13:13:34;16.00;71.80
28075;DHT22;15385;51.088;6.572;2023-04-03T13:16:10;15.60;70.60
28075;DHT22;15385;51.088;6.572;2023-04-03T13:18:41;15.60;70.50
28075;DHT22;15385;51.088;6.572;2023-04-03T13:21:18;15.30;70.40
28075;DHT22;15385;51.088;6.572;2023-04-03T13:23:52;15.50;72.70
28075;DHT22;15385;51.088;6.572;2023-04-03T13:26:29;15.80;71.10
28075;DHT22;15385;51.088;6.572;2023-04-03T13:29:04;15.50;70.00
28075;DHT22;15385;51.088;6.572;2023-04-03T13:31:40;15.30;68.80
28075;DHT22;15385;51.088;6.572;2023-04-03T13:34:20;15.70;67.50
28075;DHT22;15385;51.088;6.572;2023-04-03T13:39:32;15.40;66.00
28075;DHT22;15385;51.088;6.572;2023-04-03T13:42:25;15.80;68.30
28075;DHT22;15385;51.088;6.572;2023-04-03T13:45:23;16.00;67.20
28075;DHT22;15385;51.088;6.572;2023-04-03T13:48:17;16.00;66.30
28075;DHT22;15385;51.088;6.572;2023-04-03T13:51:03;16.10;67.70
28075;DHT22;15385;51.088;6.572;2023-04-03T13:56:26;15.90;67.50
28075;DHT22;15385;51.088;6.572;2023-04-03T13:59:04;15.40;66.00
28075;DHT22;15385;51.088;6.572;2023-04-03T14:01:56;15.40;67.80
28075;DHT22;15385;51.088;6.572;2023-04-03T14:04:47;15.10;65.80
28075;DHT22;15385;51.088;6.572;2023-04-03T14:07:19;15.30;67.30
28075;DHT22;15385;51.088;6.572;2023-04-03T14:09:52;15.10;67.40
28075;DHT22;15385;51.088;6.572;2023-04-03T14:12:27;15.00;66.40
28075;DHT22;15385;51.088;6.572;2023-04-03T14:15:01;15.20;67.40
28075;DHT22;15385;51.088;6.572;2023-04-03T14:17:32;15.50;65.50
28075;DHT22;15385;51.088;6.572;2023-04-03T14:20:03;15.70;66.40
28075;DHT22;15385;51.088;6.572;2023-04-03T14:22:34;16.00;66.60
28075;DHT22;15385;51.088;6.572;2023-04-03T14:25:05;15.80;66.40
28075;DHT22;15385;51.088;6.572;2023-04-03T14:27:39;15.40;67.40
28075;DHT22;15385;51.088;6.572;2023-04-03T14:30:24;15.20;70.00
28075;DHT22;15385;51.088;6.572;2023-04-03T14:32:55;15.40;69.80
28075;DHT22;15385;51.088;6.572;2023-04-03T14:35:26;15.80;70.40
28075;DHT22;15385;51.088;6.572;2023-04-03T14:37:57;15.80;68.40
28075;DHT22;15385;51.088;6.572;2023-04-03T14:40:28;15.70;69.80
28075;DHT22;15385;51.088;6.572;2023-04-03T14:42:58;15.90;69.80
28075;DHT22;15385;51.088;6.572;2023-04-03T14:45:29;16.20;69.70
28075;DHT22;15385;51.088;6.572;2023-04-03T14:48:00;16.00;69.10
28075;DHT22;15385;51.088;6.572;2023-04-03T14:50:31;15.90;69.90
28075;DHT22;15385;51.088;6.572;2023-04-03T14:53:01;16.10;71.30
28075;DHT22;15385;51.088;6.572;2023-04-03T14:55:32;16.00;69.60
28075;DHT22;15385;51.088;6.572;2023-04-03T14:58:02;15.80;70.10
28075;DHT22;15385;51.088;6.572;2023-04-03T15:00:33;15.70;69.60
28075;DHT22;15385;51.088;6.572;2023-04-03T15:03:04;15.50;70.30
28075;DHT22;15385;51.088;6.572;2023-04-03T15:05:35;15.40;69.90
28075;DHT22;15385;51.088;6.572;2023-04-03T15:08:27;15.10;71.40
28075;DHT22;15385;51.088;6.572;2023-04-03T15:10:59;15.60;71.70
28075;DHT22;15385;51.088;6.572;2023-04-03T15:13:31;15.40;71.10
28075;DHT22;15385;51.088;6.572;2023-04-03T15:16:02;14.90;70.50
28075;DHT22;15385;51.088;6.572;2023-04-03T15:18:37;14.70;72.40
28075;DHT22;15385;51.088;6.572;2023-04-03T15:21:08;14.90;71.70
28075;DHT22;15385;51.088;6.572;2023-04-03T15:23:39;14.90;72.50
28075;DHT22;15385;51.088;6.572;2023-04-03T15:26:09;15.30;73.20
28075;DHT22;15385;51.088;6.572;2023-04-03T15:28:42;15.30;72.20
28075;DHT22;15385;51.088;6.572;2023-04-03T15:31:13;15.10;72.60
28075;DHT22;15385;51.088;6.572;2023-04-03T15:33:43;14.90;73.60
28075;DHT22;15385;51.088;6.572;2023-04-03T15:36:14;15.00;75.30
28075;DHT22;15385;51.088;6.572;2023-04-03T15:38:44;14.90;73.60
28075;DHT22;15385;51.088;6.572;2023-04-03T15:41:15;15.00;74.10
28075;DHT22;15385;51.088;6.572;2023-04-03T15:43:46;14.80;74.30
28075;DHT22;15385;51.088;6.572;2023-04-03T15:46:16;14.80;74.70
28075;DHT22;15385;51.088;6.572;2023-04-03T15:48:47;15.00;74.70
28075;DHT22;15385;51.088;6.572;2023-04-03T15:51:19;15.10;74.70
28075;DHT22;15385;51.088;6.572;2023-04-03T15:53:50;15.10;73.90
28075;DHT22;15385;51.088;6.572;2023-04-03T15:56:20;14.90;73.60
28075;DHT22;15385;51.088;6.572;2023-04-03T15:58:51;14.90;75.40
28075;DHT22;15385;51.088;6.572;2023-04-03T16:01:22;14.80;74.90
28075;DHT22;15385;51.088;6.572;2023-04-03T16:03:52;14.70;75.80
28075;DHT22;15385;51.088;6.572;2023-04-03T16:06:25;14.70;75.50
28075;DHT22;15385;51.088;6.572;2023-04-03T16:08:56;14.50;74.70
28075;DHT22;15385;51.088;6.572;2023-04-03T16:11:28;14.20;74.60
28075;DHT22;15385;51.088;6.572;2023-04-03T16:13:59;14.20;75.50
28075;DHT22;15385;51.088;6.572;2023-04-03T16:16:29;14.20;76.00
28075;DHT22;15385;51.088;6.572;2023-04-03T16:19:00;14.10;76.10
28075;DHT22;15385;51.088;6.572;2023-04-03T16:21:32;14.20;76.30
28075;DHT22;15385;51.088;6.572;2023-04-03T16:24:03;14.10;75.80
28075;DHT22;15385;51.088;6.572;2023-04-03T16:26:34;14.10;77.00
28075;DHT22;15385;51.088;6.572;2023-04-03T16:29:04;14.10;76.70
28075;DHT22;15385;51.088;6.572;2023-04-03T16:31:35;13.90;76.90
28075;DHT22;15385;51.088;6.572;2023-04-03T16:34:06;13.90;77.70
28075;DHT22;15385;51.088;6.572;2023-04-03T16:36:36;13.70;77.00
28075;DHT22;15385;51.088;6.572;2023-04-03T16:39:08;13.50;77.80
28075;DHT22;15385;51.088;6.572;2023-04-03T16:41:40;13.10;78.10
28075;DHT22;15385;51.088;6.572;2023-04-03T16:44:11;12.70;79.30
28075;DHT22;15385;51.088;6.572;2023-04-03T16:46:42;12.60;80.90
28075;DHT22;15385;51.088;6.572;2023-04-03T16:49:12;12.50;81.20
28075;DHT22;15385;51.088;6.572;2023-04-03T16:51:43;12.40;80.70
28075;DHT22;15385;51.088;6.572;2023-04-03T16:54:14;12.10;81.90
28075;DHT22;15385;51.088;6.572;2023-04-03T16:56:44;12.00;82.70
28075;DHT22;15385;51.088;6.572;2023-04-03T16:59:15;12.10;83.10
28075;DHT22;15385;51.088;6.572;2023-04-03T17:01:46;12.00;83.60
28075;DHT22;15385;51.088;6.572;2023-04-03T17:04:16;12.00;84.10
28075;DHT22;15385;51.088;6.572;2023-04-03T17:06:47;12.10;84.50
28075;DHT22;15385;51.088;6.572;2023-04-03T17:09:18;12.00;83.80
28075;DHT22;15385;51.088;6.572;2023-04-03T17:11:50;11.80;84.30
28075;DHT22;15385;51.088;6.572;2023-04-03T17:14:21;11.60;84.30
28075;DHT22;15385;51.088;6.572;2023-04-03T17:16:52;11.50;85.20
28075;DHT22;15385;51.088;6.572;2023-04-03T17:19:23;11.50;85.70
28075;DHT22;15385;51.088;6.572;2023-04-03T17:21:54;11.60;85.60
28075;DHT22;15385;51.088;6.572;2023-04-03T17:24:26;11.50;86.60
28075;DHT22;15385;51.088;6.572;2023-04-03T17:26:57;11.50;86.10
28075;DHT22;15385;51.088;6.572;2023-04-03T17:29:27;11.50;86.70
28075;DHT22;15385;51.088;6.572;2023-04-03T17:31:58;11.40;87.60
28075;DHT22;15385;51.088;6.572;2023-04-03T17:34:28;11.40;88.30
28075;DHT22;15385;51.088;6.572;2023-04-03T17:36:59;11.30;89.00
28075;DHT22;15385;51.088;6.572;2023-04-03T17:39:30;11.20;89.70
28075;DHT22;15385;51.088;6.572;2023-04-03T17:42:01;11.30;90.10
28075;DHT22;15385;51.088;6.572;2023-04-03T17:44:31;11.20;89.50
28075;DHT22;15385;51.088;6.572;2023-04-03T17:47:02;10.90;90.00
28075;DHT22;15385;51.088;6.572;2023-04-03T17:49:32;10.90;90.30
28075;DHT22;15385;51.088;6.572;2023-04-03T17:52:03;10.80;90.10
28075;DHT22;15385;51.088;6.572;2023-04-03T17:54:34;10.70;90.50